This London Heathrow Airport weather forecast is generated by the Met Office Weather Widget

AirNav RadarBox - Metar Weather
  London Heathrow Metar Weather
 

METAR = EGLL 190920Z AUTO 08004KT 040V120 3300 HZ OVC006 18/17 Q1011

STATION........ EGLL
OBSERVED....... Fri Sep 19, 10:20 BST
NOW............ Fri Sep 19, 10:46 BST
AGE............ 26 min ago
WIND........... E at 5 mph
VISIBILITY..... 5 miles
CONDITIONS..... haze
CLOUDS......... overcast
TEMP........... 64°F (18°C)
DEWPT.......... 63°F (17°C)
HUMIDITY....... 94%
BAROMETER...... 1011 hPa (29.85 in Hg)

Fri Sep 19 2014, sunrise time : 05:47
Fri Sep 19 2014, sunset time : 18:03